Watts, California
Current Conditions -  °F | °C
As of 12:53 PM on Saturday 25 Oct 2014 (Local Time) from KHHR Reporting Station
Overcast Overcast  
Wind Chill: 75°   Ceiling: 10000
Heat Index: 75°   Visibility: 10mi
Dew Point: 59°   Wind: 8mph
Humidity: 57%   Direction: 280°W
Pressure: 30.05"   Gusts: NA
Location:  33.9535°N, 118.291°W
Report Text: KHHR 251953Z 28007KT 10SM OVC100 24/15 A3005 RMK AO2 SLP173 T02390150
Loading
Personal Weather Stations






























Interactive Weather Map
Tropical Storm Tracking
New forecast layout! Learn more

10-Day Weather Forecast

Advertisements
Track Severe Weather on mobile